createdAt,value
2022-12-18T00:02:40.299Z,6.28
2022-12-18T00:07:45.851Z,6.66
2022-12-18T00:12:49.957Z,6.51
2022-12-18T00:17:54.580Z,6.56
2022-12-18T00:22:59.932Z,6.65
2022-12-18T00:28:05.139Z,6.45
2022-12-18T00:33:11.722Z,6.34
2022-12-18T00:38:17.447Z,6.56
2022-12-18T00:43:21.481Z,6.66
2022-12-18T00:48:25.652Z,6.66
2022-12-18T00:53:31.106Z,6.81
2022-12-18T00:58:38.291Z,6.90
2022-12-18T01:03:42.837Z,6.75
2022-12-18T01:08:49.131Z,6.78
2022-12-18T01:13:54.708Z,6.66
2022-12-18T01:18:59.883Z,6.60
2022-12-18T01:24:08.427Z,6.81
2022-12-18T01:29:12.412Z,7.07
2022-12-18T01:34:16.908Z,6.89
2022-12-18T01:39:23.444Z,7.16
2022-12-18T01:44:57.478Z,7.03
2022-12-18T01:50:05.392Z,7.01
2022-12-18T01:55:12.586Z,6.85
2022-12-18T02:00:20.730Z,6.77
2022-12-18T02:05:39.253Z,6.73
2022-12-18T02:10:52.013Z,6.71
2022-12-18T02:16:12.556Z,6.74
2022-12-18T02:21:30.013Z,6.86
2022-12-18T02:26:40.597Z,6.78
2022-12-18T02:31:50.170Z,6.71
2022-12-18T02:36:55.679Z,6.60
2022-12-18T02:42:08.979Z,6.49
2022-12-18T02:47:15.013Z,6.70
2022-12-18T02:52:27.763Z,6.59
2022-12-18T02:57:39.877Z,6.42
2022-12-18T03:02:49.869Z,6.16
2022-12-18T03:08:00.133Z,6.19
2022-12-18T03:13:14.299Z,6.21
2022-12-18T03:18:22.823Z,6.35
2022-12-18T03:23:31.960Z,6.56
2022-12-18T03:28:40.988Z,6.41
2022-12-18T03:33:49.874Z,6.26
2022-12-18T03:39:03.517Z,6.03
2022-12-18T03:44:16.903Z,5.98
2022-12-18T03:49:28.706Z,5.91
2022-12-18T03:54:36.764Z,6.17
2022-12-18T03:59:54.374Z,6.02
2022-12-18T04:05:07.185Z,5.78
2022-12-18T04:10:16.906Z,5.63
2022-12-18T04:15:27.976Z,5.70
2022-12-18T04:20:33.101Z,5.51
2022-12-18T04:25:37.391Z,5.40
2022-12-18T04:30:50.537Z,5.47
2022-12-18T04:35:54.822Z,5.37
2022-12-18T04:40:58.991Z,5.38
2022-12-18T04:46:07.416Z,5.49
2022-12-18T04:51:11.345Z,5.36
2022-12-18T04:56:17.790Z,5.37
2022-12-18T05:01:23.616Z,5.38
2022-12-18T05:06:28.097Z,5.25
2022-12-18T05:11:32.779Z,5.18
2022-12-18T05:16:38.313Z,5.23
2022-12-18T05:21:42.342Z,5.04
2022-12-18T05:26:46.604Z,5.05
2022-12-18T05:31:51.968Z,4.99
2022-12-18T05:36:56.029Z,4.91
2022-12-18T05:42:00.014Z,5.03
2022-12-18T05:47:05.934Z,4.99
2022-12-18T05:52:11.978Z,5.03
2022-12-18T05:57:16.103Z,5.02
2022-12-18T06:02:22.202Z,4.89
2022-12-18T06:07:26.483Z,4.86
2022-12-18T06:12:30.664Z,4.81
2022-12-18T06:17:36.945Z,4.79
2022-12-18T06:22:41.024Z,4.83
2022-12-18T06:27:47.848Z,4.78
2022-12-18T06:32:56.766Z,4.93
2022-12-18T06:38:03.350Z,5.15
2022-12-18T06:43:07.941Z,5.03
2022-12-18T06:48:13.738Z,5.11
2022-12-18T06:53:17.812Z,5.01
2022-12-18T06:58:23.352Z,5.18
2022-12-18T07:03:28.950Z,5.66
2022-12-18T07:08:33.577Z,5.52
2022-12-18T07:13:37.872Z,5.41
2022-12-18T07:18:43.716Z,5.69
2022-12-18T07:23:49.499Z,5.79
2022-12-18T07:28:58.651Z,5.90
2022-12-18T07:34:04.148Z,5.79
2022-12-18T07:39:09.664Z,5.62
2022-12-18T07:44:13.983Z,5.33
2022-12-18T07:49:19.570Z,5.13
2022-12-18T07:54:23.869Z,5.13
2022-12-18T07:59:28.447Z,5.17
2022-12-18T08:04:37.163Z,5.30
2022-12-18T08:09:41.190Z,5.05
2022-12-18T08:14:45.497Z,5.07
2022-12-18T08:19:53.150Z,4.83
2022-12-18T08:24:57.235Z,4.83
2022-12-18T08:30:01.461Z,4.74
2022-12-18T08:35:08.474Z,4.70
2022-12-18T08:40:14.233Z,4.67
2022-12-18T08:45:18.640Z,4.68
2022-12-18T08:50:24.312Z,4.72
2022-12-18T08:55:28.488Z,4.79
2022-12-18T09:00:35.608Z,4.91
2022-12-18T09:05:41.121Z,4.83
2022-12-18T09:10:46.811Z,5.06
2022-12-18T09:15:52.924Z,4.89
2022-12-18T09:21:10.808Z,4.74
2022-12-18T09:26:15.509Z,4.65
2022-12-18T09:31:27.749Z,4.59
2022-12-18T09:36:34.276Z,4.54
2022-12-18T09:41:55.465Z,4.51
2022-12-18T09:47:12.480Z,4.60
2022-12-18T09:52:28.595Z,4.59
2022-12-18T09:57:35.666Z,4.83
2022-12-18T10:02:39.966Z,4.86
2022-12-18T10:07:56.290Z,4.84
2022-12-18T10:13:11.951Z,4.54
2022-12-18T10:18:28.507Z,4.64
2022-12-18T10:23:47.831Z,4.59
2022-12-18T10:28:54.494Z,4.74
2022-12-18T10:34:00.239Z,4.84
2022-12-18T10:39:20.439Z,4.96
2022-12-18T10:44:31.637Z,5.01
2022-12-18T10:49:38.332Z,4.94
2022-12-18T10:54:50.468Z,4.90
2022-12-18T10:59:58.013Z,5.18
2022-12-18T11:05:27.962Z,5.52
2022-12-18T11:10:36.107Z,5.18
2022-12-18T11:15:43.805Z,5.41
2022-12-18T11:20:58.302Z,5.42
2022-12-18T11:26:07.100Z,5.51
2022-12-18T11:31:19.105Z,5.41
2022-12-18T11:36:24.900Z,5.56
2022-12-18T11:41:52.587Z,5.49
2022-12-18T11:47:02.603Z,5.98
2022-12-18T11:52:17.579Z,5.68
2022-12-18T11:57:35.952Z,5.79
2022-12-18T12:02:52.074Z,5.97
2022-12-18T12:08:04.267Z,5.86
2022-12-18T12:13:25.870Z,5.76
2022-12-18T12:18:40.491Z,5.92
2022-12-18T12:23:53.873Z,5.89
2022-12-18T12:29:20.978Z,6.03
2022-12-18T12:34:33.276Z,5.99
2022-12-18T12:39:40.013Z,6.02
2022-12-18T12:44:55.788Z,6.10
2022-12-18T12:50:02.522Z,6.13
2022-12-18T12:55:18.470Z,6.09
2022-12-18T13:00:26.915Z,6.18
2022-12-18T13:05:39.266Z,6.03
2022-12-18T13:10:44.279Z,6.03
2022-12-18T13:15:52.159Z,6.18
2022-12-18T13:21:06.236Z,6.30
2022-12-18T13:26:40.477Z,6.18
2022-12-18T13:32:02.868Z,5.99
2022-12-18T13:37:47.328Z,5.79
2022-12-18T13:43:09.218Z,5.94
2022-12-18T13:48:29.578Z,5.97
2022-12-18T13:53:41.957Z,5.84
2022-12-18T13:58:48.319Z,5.70
2022-12-18T14:04:10.484Z,5.63
2022-12-18T14:09:21.387Z,5.74
2022-12-18T14:14:32.383Z,5.71
2022-12-18T14:19:40.418Z,5.62
2022-12-18T14:24:44.598Z,5.73
2022-12-18T14:29:48.774Z,5.43
2022-12-18T14:34:56.415Z,5.58
2022-12-18T14:40:08.761Z,5.48
2022-12-18T14:45:43.059Z,5.50
2022-12-18T14:50:59.994Z,5.34
2022-12-18T14:56:05.918Z,5.35
2022-12-18T15:01:12.668Z,5.69
2022-12-18T15:06:30.128Z,5.57
2022-12-18T15:11:45.740Z,5.30
2022-12-18T15:16:54.272Z,5.44
2022-12-18T15:22:06.111Z,5.38
2022-12-18T15:27:24.646Z,5.32
2022-12-18T15:32:30.464Z,5.27
2022-12-18T15:37:45.122Z,5.32
2022-12-18T15:43:11.099Z,5.45
2022-12-18T15:48:24.495Z,5.33
2022-12-18T15:53:34.618Z,5.20
2022-12-18T15:58:39.509Z,5.16
2022-12-18T16:03:44.402Z,5.19
2022-12-18T16:08:50.913Z,5.13
2022-12-18T16:13:55.475Z,5.31
2022-12-18T16:19:00.803Z,5.03
2022-12-18T16:24:12.950Z,4.98
2022-12-18T16:29:17.575Z,5.07
2022-12-18T16:34:26.777Z,4.89
2022-12-18T16:39:35.732Z,4.92
2022-12-18T16:44:41.347Z,5.04
2022-12-18T16:49:47.135Z,4.86
2022-12-18T16:54:54.995Z,5.17
2022-12-18T17:00:04.664Z,5.10
2022-12-18T17:05:13.201Z,4.79
2022-12-18T17:10:19.119Z,4.84
2022-12-18T17:15:24.773Z,4.92
2022-12-18T17:20:29.355Z,4.81
2022-12-18T17:25:35.072Z,4.85
2022-12-18T17:30:42.379Z,4.78
2022-12-18T17:35:49.785Z,4.89
2022-12-18T17:41:01.695Z,4.53
2022-12-18T17:46:10.598Z,4.27
2022-12-18T17:51:19.571Z,4.16
2022-12-18T17:56:26.620Z,4.19
2022-12-18T18:01:32.722Z,4.00
2022-12-18T18:06:39.093Z,4.20
2022-12-18T18:12:02.294Z,4.01
2022-12-18T18:17:07.786Z,3.82
2022-12-18T18:22:13.457Z,3.96
2022-12-18T18:27:20.391Z,4.21
2022-12-18T18:32:24.729Z,4.22
2022-12-18T18:37:29.758Z,3.86
2022-12-18T18:42:35.793Z,3.95
2022-12-18T18:47:39.900Z,3.86
2022-12-18T18:52:44.668Z,3.77
2022-12-18T18:57:50.462Z,3.66
2022-12-18T19:03:00.346Z,3.87
2022-12-18T19:08:05.002Z,3.88
2022-12-18T19:13:24.570Z,3.79
2022-12-18T19:18:29.275Z,3.60
2022-12-18T19:23:34.945Z,3.74
2022-12-18T19:28:41.242Z,3.96
2022-12-18T19:33:48.686Z,3.69
2022-12-18T19:38:56.201Z,3.58
2022-12-18T19:44:07.748Z,3.41
2022-12-18T19:49:17.528Z,3.50
2022-12-18T19:54:22.719Z,3.77
2022-12-18T19:59:28.931Z,3.58
2022-12-18T20:04:33.510Z,3.73
2022-12-18T20:09:38.387Z,3.28
2022-12-18T20:14:44.137Z,3.58
2022-12-18T20:19:49.538Z,3.67
2022-12-18T20:24:53.871Z,3.65
2022-12-18T20:29:59.735Z,3.68
2022-12-18T20:35:04.128Z,3.35
2022-12-18T20:40:10.956Z,3.38
2022-12-18T20:45:18.843Z,3.37
2022-12-18T20:50:25.610Z,3.26
2022-12-18T20:55:30.111Z,3.25
2022-12-18T21:00:37.628Z,3.56
2022-12-18T21:05:42.396Z,3.78
2022-12-18T21:10:46.843Z,3.69
2022-12-18T21:15:55.547Z,3.79
2022-12-18T21:20:59.951Z,3.65
2022-12-18T21:26:17.139Z,3.48
2022-12-18T21:31:23.446Z,3.17
2022-12-18T21:36:27.788Z,3.09
2022-12-18T21:41:49.327Z,3.31
2022-12-18T21:47:04.568Z,3.29
2022-12-18T21:52:16.127Z,3.22
2022-12-18T21:57:20.106Z,3.45
2022-12-18T22:02:26.801Z,3.11
2022-12-18T22:07:31.156Z,2.96
2022-12-18T22:12:44.167Z,2.84
2022-12-18T22:17:58.133Z,2.96
2022-12-18T22:23:06.263Z,3.22
2022-12-18T22:28:28.869Z,3.07
2022-12-18T22:33:34.883Z,2.97
2022-12-18T22:38:38.884Z,2.84
2022-12-18T22:43:42.888Z,2.75
2022-12-18T22:48:48.270Z,2.56
2022-12-18T22:53:52.185Z,2.56
2022-12-18T22:58:56.162Z,2.56
2022-12-18T23:04:04.904Z,2.51
2022-12-18T23:09:14.629Z,2.50
2022-12-18T23:14:18.581Z,2.50
2022-12-18T23:19:24.691Z,2.53
2022-12-18T23:24:31.303Z,2.69
2022-12-18T23:29:37.752Z,2.30
2022-12-18T23:34:43.838Z,2.33
2022-12-18T23:39:48.716Z,2.46
2022-12-18T23:44:53.150Z,2.48
2022-12-18T23:49:58.741Z,2.65
2022-12-18T23:55:03.057Z,2.39
